sensor_id;sensor_type;location;lat;lon;timestamp;temperature;humidity
24402;DHT22;12539;48.808;11.292;2022-11-02T00:01:42;12.50;99.90
24402;DHT22;12539;48.808;11.292;2022-11-02T00:04:08;12.40;99.90
24402;DHT22;12539;48.808;11.292;2022-11-02T00:06:34;12.30;99.90
24402;DHT22;12539;48.808;11.292;2022-11-02T00:09:00;12.20;99.90
24402;DHT22;12539;48.808;11.292;2022-11-02T00:11:26;12.20;99.90
24402;DHT22;12539;48.808;11.292;2022-11-02T00:13:52;12.20;99.90
24402;DHT22;12539;48.808;11.292;2022-11-02T00:16:18;12.20;99.90
24402;DHT22;12539;48.808;11.292;2022-11-02T00:18:47;12.20;99.90
24402;DHT22;12539;48.808;11.292;2022-11-02T00:21:16;12.10;99.90
24402;DHT22;12539;48.808;11.292;2022-11-02T00:23:43;12.10;99.90
24402;DHT22;12539;48.808;11.292;2022-11-02T00:26:10;12.10;99.90
24402;DHT22;12539;48.808;11.292;2022-11-02T00:28:36;12.10;99.90
24402;DHT22;12539;48.808;11.292;2022-11-02T00:31:02;12.10;99.90
24402;DHT22;12539;48.808;11.292;2022-11-02T00:33:28;12.20;99.90
24402;DHT22;12539;48.808;11.292;2022-11-02T00:35:54;12.10;99.90
24402;DHT22;12539;48.808;11.292;2022-11-02T00:38:20;12.20;99.90
24402;DHT22;12539;48.808;11.292;2022-11-02T00:40:45;12.10;99.90
24402;DHT22;12539;48.808;11.292;2022-11-02T00:43:11;12.10;99.90
24402;DHT22;12539;48.808;11.292;2022-11-02T00:45:37;12.10;99.90
24402;DHT22;12539;48.808;11.292;2022-11-02T00:48:03;12.00;99.90
24402;DHT22;12539;48.808;11.292;2022-11-02T00:50:29;12.00;99.90
24402;DHT22;12539;48.808;11.292;2022-11-02T00:52:55;12.00;99.90
24402;DHT22;12539;48.808;11.292;2022-11-02T00:55:21;11.90;99.90
24402;DHT22;12539;48.808;11.292;2022-11-02T00:57:47;11.80;99.90
24402;DHT22;12539;48.808;11.292;2022-11-02T01:00:13;11.80;99.90
24402;DHT22;12539;48.808;11.292;2022-11-02T01:02:39;11.80;99.90
24402;DHT22;12539;48.808;11.292;2022-11-02T01:05:07;11.80;99.90
24402;DHT22;12539;48.808;11.292;2022-11-02T01:07:33;11.80;99.90
24402;DHT22;12539;48.808;11.292;2022-11-02T01:09:59;11.80;99.90
24402;DHT22;12539;48.808;11.292;2022-11-02T01:12:25;11.70;99.90
24402;DHT22;12539;48.808;11.292;2022-11-02T01:14:51;11.60;99.90
24402;DHT22;12539;48.808;11.292;2022-11-02T01:17:17;11.60;99.90
24402;DHT22;12539;48.808;11.292;2022-11-02T01:19:43;11.60;99.90
24402;DHT22;12539;48.808;11.292;2022-11-02T01:22:09;11.60;99.90
24402;DHT22;12539;48.808;11.292;2022-11-02T01:24:34;11.60;99.90
24402;DHT22;12539;48.808;11.292;2022-11-02T01:27:00;11.50;99.90
24402;DHT22;12539;48.808;11.292;2022-11-02T01:29:26;11.50;99.90
24402;DHT22;12539;48.808;11.292;2022-11-02T01:31:51;11.50;99.90
24402;DHT22;12539;48.808;11.292;2022-11-02T01:34:19;11.50;99.90
24402;DHT22;12539;48.808;11.292;2022-11-02T01:36:45;11.50;99.90
24402;DHT22;12539;48.808;11.292;2022-11-02T01:39:11;11.60;99.90
24402;DHT22;12539;48.808;11.292;2022-11-02T01:41:37;11.60;99.90
24402;DHT22;12539;48.808;11.292;2022-11-02T01:44:03;11.50;99.90
24402;DHT22;12539;48.808;11.292;2022-11-02T01:46:41;11.60;99.90
24402;DHT22;12539;48.808;11.292;2022-11-02T01:49:12;11.60;99.90
24402;DHT22;12539;48.808;11.292;2022-11-02T01:54:16;11.50;99.90
24402;DHT22;12539;48.808;11.292;2022-11-02T01:56:46;11.50;99.90
24402;DHT22;12539;48.808;11.292;2022-11-02T01:59:17;11.40;99.90
24402;DHT22;12539;48.808;11.292;2022-11-02T02:01:44;11.40;99.90
24402;DHT22;12539;48.808;11.292;2022-11-02T02:04:11;11.40;99.90
24402;DHT22;12539;48.808;11.292;2022-11-02T02:06:38;11.40;99.90
24402;DHT22;12539;48.808;11.292;2022-11-02T02:09:05;11.30;99.90
24402;DHT22;12539;48.808;11.292;2022-11-02T02:11:34;11.30;99.90
24402;DHT22;12539;48.808;11.292;2022-11-02T02:19:45;11.10;99.90
24402;DHT22;12539;48.808;11.292;2022-11-02T02:30:24;11.20;99.90
24402;DHT22;12539;48.808;11.292;2022-11-02T02:32:59;11.20;99.90
24402;DHT22;12539;48.808;11.292;2022-11-02T02:35:54;11.20;99.90
24402;DHT22;12539;48.808;11.292;2022-11-02T02:38:56;11.20;99.90
24402;DHT22;12539;48.808;11.292;2022-11-02T02:41:34;11.20;99.90
24402;DHT22;12539;48.808;11.292;2022-11-02T02:44:02;11.20;99.90
24402;DHT22;12539;48.808;11.292;2022-11-02T02:46:42;11.20;99.90
24402;DHT22;12539;48.808;11.292;2022-11-02T02:49:14;11.20;99.90
24402;DHT22;12539;48.808;11.292;2022-11-02T02:51:42;11.10;99.90
24402;DHT22;12539;48.808;11.292;2022-11-02T02:54:12;11.20;99.90
24402;DHT22;12539;48.808;11.292;2022-11-02T02:56:42;11.20;99.90
24402;DHT22;12539;48.808;11.292;2022-11-02T02:59:28;11.20;99.90
24402;DHT22;12539;48.808;11.292;2022-11-02T03:01:54;11.20;99.90
24402;DHT22;12539;48.808;11.292;2022-11-02T03:04:21;11.20;99.90
24402;DHT22;12539;48.808;11.292;2022-11-02T03:06:49;11.20;99.90
24402;DHT22;12539;48.808;11.292;2022-11-02T03:09:48;11.20;99.90
24402;DHT22;12539;48.808;11.292;2022-11-02T03:23:19;10.80;99.90
24402;DHT22;12539;48.808;11.292;2022-11-02T03:37:17;10.70;99.90
24402;DHT22;12539;48.808;11.292;2022-11-02T03:39:52;10.70;99.90
24402;DHT22;12539;48.808;11.292;2022-11-02T03:42:21;10.80;99.90
24402;DHT22;12539;48.808;11.292;2022-11-02T03:44:51;10.90;99.90
24402;DHT22;12539;48.808;11.292;2022-11-02T03:47:18;11.00;99.90
24402;DHT22;12539;48.808;11.292;2022-11-02T03:49:46;11.10;99.90
24402;DHT22;12539;48.808;11.292;2022-11-02T03:52:17;11.10;99.90
24402;DHT22;12539;48.808;11.292;2022-11-02T03:54:52;11.20;99.90
24402;DHT22;12539;48.808;11.292;2022-11-02T03:57:21;11.10;99.90
24402;DHT22;12539;48.808;11.292;2022-11-02T03:59:48;11.20;99.90
24402;DHT22;12539;48.808;11.292;2022-11-02T04:02:15;11.10;99.90
24402;DHT22;12539;48.808;11.292;2022-11-02T04:04:49;11.00;99.90
24402;DHT22;12539;48.808;11.292;2022-11-02T04:07:18;11.10;99.90
24402;DHT22;12539;48.808;11.292;2022-11-02T04:09:45;11.20;99.90
24402;DHT22;12539;48.808;11.292;2022-11-02T04:12:10;11.20;99.90
24402;DHT22;12539;48.808;11.292;2022-11-02T04:14:54;11.30;99.90
24402;DHT22;12539;48.808;11.292;2022-11-02T04:17:20;11.40;99.90
24402;DHT22;12539;48.808;11.292;2022-11-02T04:20:05;11.40;99.90
24402;DHT22;12539;48.808;11.292;2022-11-02T04:22:31;11.50;99.90
24402;DHT22;12539;48.808;11.292;2022-11-02T04:25:17;11.50;99.90
24402;DHT22;12539;48.808;11.292;2022-11-02T04:27:45;11.60;99.90
24402;DHT22;12539;48.808;11.292;2022-11-02T04:30:13;11.60;99.90
24402;DHT22;12539;48.808;11.292;2022-11-02T04:32:40;11.60;99.90
24402;DHT22;12539;48.808;11.292;2022-11-02T04:35:24;11.60;99.90
24402;DHT22;12539;48.808;11.292;2022-11-02T04:37:50;11.70;99.90
24402;DHT22;12539;48.808;11.292;2022-11-02T04:40:35;11.70;99.90
24402;DHT22;12539;48.808;11.292;2022-11-02T04:43:00;11.70;99.90
24402;DHT22;12539;48.808;11.292;2022-11-02T04:45:26;11.70;99.90
24402;DHT22;12539;48.808;11.292;2022-11-02T04:47:52;11.70;99.90
24402;DHT22;12539;48.808;11.292;2022-11-02T04:50:18;11.70;99.90
24402;DHT22;12539;48.808;11.292;2022-11-02T04:52:43;11.70;99.90
24402;DHT22;12539;48.808;11.292;2022-11-02T04:55:09;11.70;99.90
24402;DHT22;12539;48.808;11.292;2022-11-02T04:57:35;11.70;99.90
24402;DHT22;12539;48.808;11.292;2022-11-02T05:00:01;11.70;99.90
24402;DHT22;12539;48.808;11.292;2022-11-02T05:02:26;11.70;99.90
24402;DHT22;12539;48.808;11.292;2022-11-02T05:04:52;11.70;99.90
24402;DHT22;12539;48.808;11.292;2022-11-02T05:07:18;11.70;99.90
24402;DHT22;12539;48.808;11.292;2022-11-02T05:09:43;11.70;99.90
24402;DHT22;12539;48.808;11.292;2022-11-02T05:12:09;11.60;99.90
24402;DHT22;12539;48.808;11.292;2022-11-02T05:14:34;11.60;99.90
24402;DHT22;12539;48.808;11.292;2022-11-02T05:17:00;11.60;99.90
24402;DHT22;12539;48.808;11.292;2022-11-02T05:19:26;11.60;99.90
24402;DHT22;12539;48.808;11.292;2022-11-02T05:21:52;11.60;99.90
24402;DHT22;12539;48.808;11.292;2022-11-02T05:24:17;11.60;99.90
24402;DHT22;12539;48.808;11.292;2022-11-02T05:26:43;11.50;99.90
24402;DHT22;12539;48.808;11.292;2022-11-02T05:29:09;11.50;99.90
24402;DHT22;12539;48.808;11.292;2022-11-02T05:31:34;11.50;99.90
24402;DHT22;12539;48.808;11.292;2022-11-02T05:34:00;11.60;99.90
24402;DHT22;12539;48.808;11.292;2022-11-02T05:36:25;11.60;99.90
24402;DHT22;12539;48.808;11.292;2022-11-02T05:38:52;11.60;99.90
24402;DHT22;12539;48.808;11.292;2022-11-02T05:41:19;11.60;99.90
24402;DHT22;12539;48.808;11.292;2022-11-02T05:43:44;11.50;99.90
24402;DHT22;12539;48.808;11.292;2022-11-02T05:46:10;11.60;99.90
24402;DHT22;12539;48.808;11.292;2022-11-02T05:48:39;11.60;99.90
24402;DHT22;12539;48.808;11.292;2022-11-02T05:51:05;11.60;99.90
24402;DHT22;12539;48.808;11.292;2022-11-02T05:53:32;11.60;99.90
24402;DHT22;12539;48.808;11.292;2022-11-02T05:55:59;11.70;99.90
24402;DHT22;12539;48.808;11.292;2022-11-02T05:58:27;11.70;99.90
24402;DHT22;12539;48.808;11.292;2022-11-02T06:00:53;11.80;99.90
24402;DHT22;12539;48.808;11.292;2022-11-02T06:03:19;11.80;99.90
24402;DHT22;12539;48.808;11.292;2022-11-02T06:05:45;11.90;99.90
24402;DHT22;12539;48.808;11.292;2022-11-02T06:08:11;12.00;99.90
24402;DHT22;12539;48.808;11.292;2022-11-02T06:10:36;12.00;99.90
24402;DHT22;12539;48.808;11.292;2022-11-02T06:13:02;12.00;99.90
24402;DHT22;12539;48.808;11.292;2022-11-02T06:15:30;12.00;99.90
24402;DHT22;12539;48.808;11.292;2022-11-02T06:17:56;12.00;99.90
24402;DHT22;12539;48.808;11.292;2022-11-02T06:20:22;11.90;99.90
24402;DHT22;12539;48.808;11.292;2022-11-02T06:22:48;11.90;99.90
24402;DHT22;12539;48.808;11.292;2022-11-02T06:25:14;11.90;99.90
24402;DHT22;12539;48.808;11.292;2022-11-02T06:27:40;11.90;99.90
24402;DHT22;12539;48.808;11.292;2022-11-02T06:30:07;12.00;99.90
24402;DHT22;12539;48.808;11.292;2022-11-02T06:32:33;11.90;99.90
24402;DHT22;12539;48.808;11.292;2022-11-02T06:34:59;11.90;99.90
24402;DHT22;12539;48.808;11.292;2022-11-02T06:37:25;11.90;99.90
24402;DHT22;12539;48.808;11.292;2022-11-02T06:39:50;11.90;99.90
24402;DHT22;12539;48.808;11.292;2022-11-02T06:42:16;11.90;99.90
24402;DHT22;12539;48.808;11.292;2022-11-02T06:44:42;11.90;99.90
24402;DHT22;12539;48.808;11.292;2022-11-02T06:47:08;11.80;99.90
24402;DHT22;12539;48.808;11.292;2022-11-02T06:49:33;11.80;99.90
24402;DHT22;12539;48.808;11.292;2022-11-02T06:51:59;11.70;99.90
24402;DHT22;12539;48.808;11.292;2022-11-02T06:54:25;11.80;99.90
24402;DHT22;12539;48.808;11.292;2022-11-02T06:56:50;11.80;99.90
24402;DHT22;12539;48.808;11.292;2022-11-02T06:59:16;11.80;99.90
24402;DHT22;12539;48.808;11.292;2022-11-02T07:01:41;11.80;99.90
24402;DHT22;12539;48.808;11.292;2022-11-02T07:04:07;11.80;99.90
24402;DHT22;12539;48.808;11.292;2022-11-02T07:06:33;11.80;99.90
24402;DHT22;12539;48.808;11.292;2022-11-02T07:08:59;11.90;99.90
24402;DHT22;12539;48.808;11.292;2022-11-02T07:11:24;11.90;99.90
24402;DHT22;12539;48.808;11.292;2022-11-02T07:13:50;11.90;99.90
24402;DHT22;12539;48.808;11.292;2022-11-02T07:16:16;12.00;99.90
24402;DHT22;12539;48.808;11.292;2022-11-02T07:18:41;12.00;99.90
24402;DHT22;12539;48.808;11.292;2022-11-02T07:21:07;12.00;99.90
24402;DHT22;12539;48.808;11.292;2022-11-02T07:23:35;12.10;99.90
24402;DHT22;12539;48.808;11.292;2022-11-02T07:26:01;12.10;99.90
24402;DHT22;12539;48.808;11.292;2022-11-02T07:28:27;12.10;99.90
24402;DHT22;12539;48.808;11.292;2022-11-02T07:30:53;12.00;99.90
24402;DHT22;12539;48.808;11.292;2022-11-02T07:33:20;12.00;99.90
24402;DHT22;12539;48.808;11.292;2022-11-02T07:35:45;12.00;99.90
24402;DHT22;12539;48.808;11.292;2022-11-02T07:38:13;12.00;99.90
24402;DHT22;12539;48.808;11.292;2022-11-02T07:40:39;12.10;99.90
24402;DHT22;12539;48.808;11.292;2022-11-02T07:43:05;12.30;99.90
24402;DHT22;12539;48.808;11.292;2022-11-02T07:45:31;12.40;99.90
24402;DHT22;12539;48.808;11.292;2022-11-02T07:47:57;12.50;99.90
24402;DHT22;12539;48.808;11.292;2022-11-02T07:50:24;12.50;99.90
24402;DHT22;12539;48.808;11.292;2022-11-02T07:52:53;12.60;99.90
24402;DHT22;12539;48.808;11.292;2022-11-02T07:55:21;12.70;99.90
24402;DHT22;12539;48.808;11.292;2022-11-02T07:58:08;12.70;99.90
24402;DHT22;12539;48.808;11.292;2022-11-02T08:00:37;12.80;99.90
24402;DHT22;12539;48.808;11.292;2022-11-02T08:03:04;12.80;99.90
24402;DHT22;12539;48.808;11.292;2022-11-02T08:05:32;12.80;99.90
24402;DHT22;12539;48.808;11.292;2022-11-02T08:08:03;12.80;99.90
24402;DHT22;12539;48.808;11.292;2022-11-02T08:10:31;12.90;99.90
24402;DHT22;12539;48.808;11.292;2022-11-02T08:12:57;13.00;99.90
24402;DHT22;12539;48.808;11.292;2022-11-02T08:15:23;13.10;99.90
24402;DHT22;12539;48.808;11.292;2022-11-02T08:18:06;13.10;99.90
24402;DHT22;12539;48.808;11.292;2022-11-02T08:20:35;13.30;99.90
24402;DHT22;12539;48.808;11.292;2022-11-02T08:23:01;13.30;99.90
24402;DHT22;12539;48.808;11.292;2022-11-02T08:25:28;13.30;99.90
24402;DHT22;12539;48.808;11.292;2022-11-02T08:27:57;13.30;99.90
24402;DHT22;12539;48.808;11.292;2022-11-02T08:30:25;13.30;99.90
24402;DHT22;12539;48.808;11.292;2022-11-02T08:32:50;13.30;99.90
24402;DHT22;12539;48.808;11.292;2022-11-02T08:35:16;13.30;99.90
24402;DHT22;12539;48.808;11.292;2022-11-02T08:37:42;13.30;99.90
24402;DHT22;12539;48.808;11.292;2022-11-02T08:40:08;13.40;99.90
24402;DHT22;12539;48.808;11.292;2022-11-02T08:42:34;13.50;99.90
24402;DHT22;12539;48.808;11.292;2022-11-02T08:44:59;13.60;99.90
24402;DHT22;12539;48.808;11.292;2022-11-02T08:47:25;13.70;99.90
24402;DHT22;12539;48.808;11.292;2022-11-02T08:49:51;13.70;99.90
24402;DHT22;12539;48.808;11.292;2022-11-02T08:52:17;13.80;99.90
24402;DHT22;12539;48.808;11.292;2022-11-02T08:54:43;13.90;99.90
24402;DHT22;12539;48.808;11.292;2022-11-02T08:57:08;13.90;99.90
24402;DHT22;12539;48.808;11.292;2022-11-02T08:59:34;13.90;99.90
24402;DHT22;12539;48.808;11.292;2022-11-02T09:02:00;13.90;99.90
24402;DHT22;12539;48.808;11.292;2022-11-02T09:04:25;13.90;99.90
24402;DHT22;12539;48.808;11.292;2022-11-02T09:06:51;13.90;99.90
24402;DHT22;12539;48.808;11.292;2022-11-02T09:09:17;13.90;99.90
24402;DHT22;12539;48.808;11.292;2022-11-02T09:11:42;14.00;99.90
24402;DHT22;12539;48.808;11.292;2022-11-02T09:14:08;14.00;99.90
24402;DHT22;12539;48.808;11.292;2022-11-02T09:16:34;14.00;99.90
24402;DHT22;12539;48.808;11.292;2022-11-02T09:18:59;14.10;99.90
24402;DHT22;12539;48.808;11.292;2022-11-02T09:21:25;14.10;99.90
24402;DHT22;12539;48.808;11.292;2022-11-02T09:23:51;14.20;99.90
24402;DHT22;12539;48.808;11.292;2022-11-02T09:26:16;14.40;99.90
24402;DHT22;12539;48.808;11.292;2022-11-02T09:28:42;14.40;99.90
24402;DHT22;12539;48.808;11.292;2022-11-02T09:31:08;14.50;99.90
24402;DHT22;12539;48.808;11.292;2022-11-02T09:33:33;14.50;99.90
24402;DHT22;12539;48.808;11.292;2022-11-02T09:36:04;14.60;99.90
24402;DHT22;12539;48.808;11.292;2022-11-02T09:38:31;14.70;99.90
24402;DHT22;12539;48.808;11.292;2022-11-02T09:41:01;14.80;99.90
24402;DHT22;12539;48.808;11.292;2022-11-02T09:46:34;14.80;99.90
24402;DHT22;12539;48.808;11.292;2022-11-02T09:49:18;14.70;99.90
24402;DHT22;12539;48.808;11.292;2022-11-02T09:56:51;14.70;99.90
24402;DHT22;12539;48.808;11.292;2022-11-02T09:59:21;14.80;99.90
24402;DHT22;12539;48.808;11.292;2022-11-02T10:02:04;14.90;99.90
24402;DHT22;12539;48.808;11.292;2022-11-02T10:12:45;15.70;99.90
24402;DHT22;12539;48.808;11.292;2022-11-02T10:15:17;15.80;99.90
24402;DHT22;12539;48.808;11.292;2022-11-02T10:17:45;15.80;99.90
24402;DHT22;12539;48.808;11.292;2022-11-02T10:22:44;16.00;99.90
24402;DHT22;12539;48.808;11.292;2022-11-02T10:25:13;16.00;99.90
24402;DHT22;12539;48.808;11.292;2022-11-02T10:27:42;16.10;99.90
24402;DHT22;12539;48.808;11.292;2022-11-02T10:30:17;16.10;99.90
24402;DHT22;12539;48.808;11.292;2022-11-02T10:32:43;16.00;99.90
24402;DHT22;12539;48.808;11.292;2022-11-02T10:51:28;16.00;99.90
24402;DHT22;12539;48.808;11.292;2022-11-02T10:53:54;15.90;99.90
24402;DHT22;12539;48.808;11.292;2022-11-02T10:58:53;15.90;99.90
24402;DHT22;12539;48.808;11.292;2022-11-02T11:01:20;15.90;99.90
24402;DHT22;12539;48.808;11.292;2022-11-02T11:06:41;15.90;99.90
24402;DHT22;12539;48.808;11.292;2022-11-02T11:09:20;15.90;99.90
24402;DHT22;12539;48.808;11.292;2022-11-02T11:14:25;16.00;99.90
24402;DHT22;12539;48.808;11.292;2022-11-02T11:16:58;16.00;99.90
24402;DHT22;12539;48.808;11.292;2022-11-02T11:19:28;15.90;99.90
24402;DHT22;12539;48.808;11.292;2022-11-02T11:21:58;15.90;99.90
24402;DHT22;12539;48.808;11.292;2022-11-02T11:24:29;15.80;99.90
24402;DHT22;12539;48.808;11.292;2022-11-02T11:29:39;15.80;99.90
24402;DHT22;12539;48.808;11.292;2022-11-02T11:32:31;15.70;99.90
24402;DHT22;12539;48.808;11.292;2022-11-02T11:35:03;15.70;99.90
24402;DHT22;12539;48.808;11.292;2022-11-02T11:37:29;15.80;99.90
24402;DHT22;12539;48.808;11.292;2022-11-02T11:40:01;15.80;99.90
24402;DHT22;12539;48.808;11.292;2022-11-02T11:42:31;15.80;99.90
24402;DHT22;12539;48.808;11.292;2022-11-02T11:45:16;15.80;99.90
24402;DHT22;12539;48.808;11.292;2022-11-02T11:47:43;15.80;99.90
24402;DHT22;12539;48.808;11.292;2022-11-02T11:50:15;15.80;99.90
24402;DHT22;12539;48.808;11.292;2022-11-02T11:52:41;15.80;99.90
24402;DHT22;12539;48.808;11.292;2022-11-02T11:55:26;15.80;99.90
24402;DHT22;12539;48.808;11.292;2022-11-02T11:58:21;15.80;99.90
24402;DHT22;12539;48.808;11.292;2022-11-02T12:01:13;15.90;99.90
24402;DHT22;12539;48.808;11.292;2022-11-02T12:03:55;16.00;99.90
24402;DHT22;12539;48.808;11.292;2022-11-02T12:15:16;16.30;99.90
24402;DHT22;12539;48.808;11.292;2022-11-02T12:18:07;16.30;99.90
24402;DHT22;12539;48.808;11.292;2022-11-02T12:20:49;16.20;99.90
24402;DHT22;12539;48.808;11.292;2022-11-02T12:23:26;16.20;99.90
24402;DHT22;12539;48.808;11.292;2022-11-02T12:27:03;16.20;99.90
24402;DHT22;12539;48.808;11.292;2022-11-02T12:31:44;16.30;99.90
24402;DHT22;12539;48.808;11.292;2022-11-02T12:40:20;16.30;99.90
24402;DHT22;12539;48.808;11.292;2022-11-02T12:48:29;16.20;99.90
24402;DHT22;12539;48.808;11.292;2022-11-02T12:56:18;16.10;99.90
24402;DHT22;12539;48.808;11.292;2022-11-02T12:58:46;16.10;99.90
24402;DHT22;12539;48.808;11.292;2022-11-02T13:06:35;16.00;99.90
24402;DHT22;12539;48.808;11.292;2022-11-02T13:09:09;15.90;99.90
24402;DHT22;12539;48.808;11.292;2022-11-02T13:11:40;15.80;99.90
24402;DHT22;12539;48.808;11.292;2022-11-02T13:14:13;15.70;99.90
24402;DHT22;12539;48.808;11.292;2022-11-02T13:16:51;15.60;99.90
24402;DHT22;12539;48.808;11.292;2022-11-02T13:19:42;15.50;99.90
24402;DHT22;12539;48.808;11.292;2022-11-02T13:22:11;15.50;99.90
24402;DHT22;12539;48.808;11.292;2022-11-02T13:24:50;15.40;99.90
24402;DHT22;12539;48.808;11.292;2022-11-02T13:27:36;15.40;99.90
24402;DHT22;12539;48.808;11.292;2022-11-02T13:30:11;15.40;99.90
24402;DHT22;12539;48.808;11.292;2022-11-02T13:35:25;15.30;99.90
24402;DHT22;12539;48.808;11.292;2022-11-02T13:38:00;15.20;99.90
24402;DHT22;12539;48.808;11.292;2022-11-02T13:40:35;15.20;99.90
24402;DHT22;12539;48.808;11.292;2022-11-02T13:43:14;15.20;99.90
24402;DHT22;12539;48.808;11.292;2022-11-02T13:51:37;15.10;99.90
24402;DHT22;12539;48.808;11.292;2022-11-02T13:54:26;15.10;99.90
24402;DHT22;12539;48.808;11.292;2022-11-02T13:56:54;15.00;99.90
24402;DHT22;12539;48.808;11.292;2022-11-02T13:59:30;15.00;99.90
24402;DHT22;12539;48.808;11.292;2022-11-02T14:01:59;15.00;99.90
24402;DHT22;12539;48.808;11.292;2022-11-02T14:04:27;14.90;99.90
24402;DHT22;12539;48.808;11.292;2022-11-02T14:06:59;14.90;99.90
24402;DHT22;12539;48.808;11.292;2022-11-02T14:14:42;14.80;99.90
24402;DHT22;12539;48.808;11.292;2022-11-02T14:17:12;14.80;99.90
24402;DHT22;12539;48.808;11.292;2022-11-02T14:22:15;14.70;99.90
24402;DHT22;12539;48.808;11.292;2022-11-02T14:44:01;14.40;99.90
24402;DHT22;12539;48.808;11.292;2022-11-02T14:49:00;14.40;99.90
24402;DHT22;12539;48.808;11.292;2022-11-02T14:51:31;14.40;99.90
24402;DHT22;12539;48.808;11.292;2022-11-02T14:54:17;14.40;99.90
24402;DHT22;12539;48.808;11.292;2022-11-02T14:59:34;14.40;99.90
24402;DHT22;12539;48.808;11.292;2022-11-02T15:04:29;14.40;99.90
24402;DHT22;12539;48.808;11.292;2022-11-02T15:06:58;14.30;99.90
24402;DHT22;12539;48.808;11.292;2022-11-02T15:10:45;14.30;99.90
24402;DHT22;12539;48.808;11.292;2022-11-02T15:12:42;14.30;99.90
24402;DHT22;12539;48.808;11.292;2022-11-02T15:15:28;14.20;99.90
24402;DHT22;12539;48.808;11.292;2022-11-02T15:17:58;14.20;99.90
24402;DHT22;12539;48.808;11.292;2022-11-02T15:20:32;14.10;99.90
24402;DHT22;12539;48.808;11.292;2022-11-02T15:23:11;14.10;99.90
24402;DHT22;12539;48.808;11.292;2022-11-02T15:25:47;14.00;99.90
24402;DHT22;12539;48.808;11.292;2022-11-02T15:28:15;14.00;99.90
24402;DHT22;12539;48.808;11.292;2022-11-02T15:30:54;14.00;99.90
24402;DHT22;12539;48.808;11.292;2022-11-02T15:36:01;13.80;99.90
24402;DHT22;12539;48.808;11.292;2022-11-02T15:38:28;13.70;99.90
24402;DHT22;12539;48.808;11.292;2022-11-02T15:46:26;13.50;99.90
24402;DHT22;12539;48.808;11.292;2022-11-02T16:00:22;13.10;99.90
24402;DHT22;12539;48.808;11.292;2022-11-02T16:02:59;13.00;99.90
24402;DHT22;12539;48.808;11.292;2022-11-02T16:05:31;12.90;99.90
24402;DHT22;12539;48.808;11.292;2022-11-02T16:07:58;12.80;99.90
24402;DHT22;12539;48.808;11.292;2022-11-02T16:10:25;12.70;99.90
24402;DHT22;12539;48.808;11.292;2022-11-02T16:16:04;12.60;99.90
24402;DHT22;12539;48.808;11.292;2022-11-02T16:18:40;12.50;99.90
24402;DHT22;12539;48.808;11.292;2022-11-02T16:21:11;12.40;99.90
24402;DHT22;12539;48.808;11.292;2022-11-02T16:23:40;12.40;99.90
24402;DHT22;12539;48.808;11.292;2022-11-02T16:26:07;12.30;99.90
24402;DHT22;12539;48.808;11.292;2022-11-02T16:28:38;12.30;99.90
24402;DHT22;12539;48.808;11.292;2022-11-02T16:33:55;12.10;99.90
24402;DHT22;12539;48.808;11.292;2022-11-02T16:36:22;12.00;99.90
24402;DHT22;12539;48.808;11.292;2022-11-02T16:38:59;12.00;99.90
24402;DHT22;12539;48.808;11.292;2022-11-02T16:41:30;12.00;99.90
24402;DHT22;12539;48.808;11.292;2022-11-02T16:44:00;12.00;99.90
24402;DHT22;12539;48.808;11.292;2022-11-02T16:46:39;11.90;99.90
24402;DHT22;12539;48.808;11.292;2022-11-02T16:49:19;12.00;99.90
24402;DHT22;12539;48.808;11.292;2022-11-02T16:52:00;12.00;99.90
24402;DHT22;12539;48.808;11.292;2022-11-02T16:57:03;12.10;99.90
24402;DHT22;12539;48.808;11.292;2022-11-02T16:59:30;12.10;99.90
24402;DHT22;12539;48.808;11.292;2022-11-02T17:01:58;12.20;99.90
24402;DHT22;12539;48.808;11.292;2022-11-02T17:04:26;12.20;99.90
24402;DHT22;12539;48.808;11.292;2022-11-02T17:07:19;12.20;99.90
24402;DHT22;12539;48.808;11.292;2022-11-02T17:09:55;12.20;99.90
24402;DHT22;12539;48.808;11.292;2022-11-02T17:12:34;12.20;99.90
24402;DHT22;12539;48.808;11.292;2022-11-02T17:15:09;12.30;99.90
24402;DHT22;12539;48.808;11.292;2022-11-02T17:17:38;12.20;99.90
24402;DHT22;12539;48.808;11.292;2022-11-02T17:20:14;12.20;99.90
24402;DHT22;12539;48.808;11.292;2022-11-02T17:22:59;12.20;99.90
24402;DHT22;12539;48.808;11.292;2022-11-02T17:28:00;12.20;99.90
24402;DHT22;12539;48.808;11.292;2022-11-02T17:33:22;12.20;99.90
24402;DHT22;12539;48.808;11.292;2022-11-02T17:35:50;12.20;99.90
24402;DHT22;12539;48.808;11.292;2022-11-02T17:38:18;12.10;99.90
24402;DHT22;12539;48.808;11.292;2022-11-02T17:40:44;12.10;99.90
24402;DHT22;12539;48.808;11.292;2022-11-02T17:43:18;12.00;99.90
24402;DHT22;12539;48.808;11.292;2022-11-02T17:45:45;12.00;99.90
24402;DHT22;12539;48.808;11.292;2022-11-02T17:48:10;11.80;99.90
24402;DHT22;12539;48.808;11.292;2022-11-02T17:50:37;11.70;99.90
24402;DHT22;12539;48.808;11.292;2022-11-02T17:53:05;11.70;99.90
24402;DHT22;12539;48.808;11.292;2022-11-02T17:55:33;11.50;99.90
24402;DHT22;12539;48.808;11.292;2022-11-02T17:57:59;11.40;99.90
24402;DHT22;12539;48.808;11.292;2022-11-02T18:00:26;11.40;99.90
24402;DHT22;12539;48.808;11.292;2022-11-02T18:02:54;11.40;99.90
24402;DHT22;12539;48.808;11.292;2022-11-02T18:05:26;11.40;99.90
24402;DHT22;12539;48.808;11.292;2022-11-02T18:07:52;11.40;99.90
24402;DHT22;12539;48.808;11.292;2022-11-02T18:10:21;11.30;99.90
24402;DHT22;12539;48.808;11.292;2022-11-02T18:12:47;11.30;99.90
24402;DHT22;12539;48.808;11.292;2022-11-02T18:15:21;11.20;99.90
24402;DHT22;12539;48.808;11.292;2022-11-02T18:17:50;11.20;99.90
24402;DHT22;12539;48.808;11.292;2022-11-02T18:20:17;11.20;99.90
24402;DHT22;12539;48.808;11.292;2022-11-02T18:22:43;11.20;99.90
24402;DHT22;12539;48.808;11.292;2022-11-02T18:25:16;11.20;99.90
24402;DHT22;12539;48.808;11.292;2022-11-02T18:27:42;11.10;99.90
24402;DHT22;12539;48.808;11.292;2022-11-02T18:30:09;11.00;99.90
24402;DHT22;12539;48.808;11.292;2022-11-02T18:32:39;10.90;99.90
24402;DHT22;12539;48.808;11.292;2022-11-02T18:35:06;10.90;99.90
24402;DHT22;12539;48.808;11.292;2022-11-02T18:37:33;10.90;99.90
24402;DHT22;12539;48.808;11.292;2022-11-02T18:39:59;10.80;99.90
24402;DHT22;12539;48.808;11.292;2022-11-02T18:42:24;10.70;99.90
24402;DHT22;12539;48.808;11.292;2022-11-02T18:44:50;10.70;99.90
24402;DHT22;12539;48.808;11.292;2022-11-02T18:47:16;10.60;99.90